Time;durP1;ratioP1;P1;durP2;ratioP2;P2;SDS_P1;SDS_P2;PMS_P1;PMS_P2;Temp;Humidity;BMP_temperature;BMP_pressure;BME280_temperature;BME280_humidity;BME280_pressure;Samples;Min_cycle;Max_cycle;Signal;HPM_P1;HPM_P2
2024/01/05 00:01:21;;;;;;;9.60;2.40;;;;;;;1.42;100.00;99997.25;6032610;28;20297;-72
2024/01/05 00:04:18;;;;;;;11.50;4.33;;;;;;;1.47;100.00;99997.78;6031908;28;20030;-72
2024/01/05 00:07:13;;;;;;;12.07;3.45;;;;;;;1.37;100.00;99989.75;6030164;28;20035;-72
2024/01/05 00:10:08;;;;;;;8.23;3.50;;;;;;;1.39;100.00;99982.63;6029951;28;20045;-73
2024/01/05 00:13:05;;;;;;;10.05;3.45;;;;;;;1.42;100.00;99992.88;6023517;28;20320;-72
2024/01/05 00:16:01;;;;;;;10.93;3.67;;;;;;;1.38;100.00;99990.59;6024450;28;20042;-72
2024/01/05 00:18:56;;;;;;;9.60;3.73;;;;;;;1.43;100.00;99993.72;6030517;28;20038;-72
2024/01/05 00:21:51;;;;;;;8.87;4.07;;;;;;;1.46;100.00;99985.66;6031509;28;20470;-72
2024/01/05 00:24:46;;;;;;;7.97;3.07;;;;;;;1.47;100.00;99987.34;6029926;28;20037;-73
2024/01/05 00:27:42;;;;;;;8.13;3.73;;;;;;;1.45;100.00;99974.38;6029647;28;20030;-73
2024/01/05 00:30:37;;;;;;;10.27;3.92;;;;;;;1.45;100.00;99968.31;6038399;28;20120;-72
2024/01/05 00:33:32;;;;;;;9.10;3.93;;;;;;;1.46;100.00;99962.16;6038870;28;20025;-72
2024/01/05 00:36:28;;;;;;;7.50;3.47;;;;;;;1.50;100.00;99971.44;6035727;28;20588;-73
2024/01/05 00:39:23;;;;;;;8.80;2.80;;;;;;;1.47;100.00;99956.00;6039490;28;20636;-72
2024/01/05 00:42:18;;;;;;;10.73;3.97;;;;;;;1.48;100.00;99955.03;6038215;28;20045;-72
2024/01/05 00:45:14;;;;;;;9.03;3.03;;;;;;;1.48;100.00;99952.44;6035717;28;20113;-72
2024/01/05 00:48:09;;;;;;;9.82;3.92;;;;;;;1.50;100.00;99950.53;6038844;28;20022;-72
2024/01/05 00:51:04;;;;;;;11.70;3.70;;;;;;;1.53;100.00;99934.66;6036069;28;20045;-72
2024/01/05 00:54:00;;;;;;;11.60;4.33;;;;;;;1.54;100.00;99941.56;6035889;28;20435;-74
2024/01/05 00:56:55;;;;;;;12.20;4.47;;;;;;;1.56;100.00;99940.50;6034001;28;20476;-71
2024/01/05 00:59:50;;;;;;;13.60;4.93;;;;;;;1.55;100.00;99940.63;6047212;28;20076;-71
2024/01/05 01:02:46;;;;;;;16.45;5.05;;;;;;;1.53;100.00;99940.72;6034998;28;20114;-71
2024/01/05 01:05:41;;;;;;;12.63;4.97;;;;;;;1.59;100.00;99940.28;6033350;28;20493;-71
2024/01/05 01:08:37;;;;;;;12.25;4.97;;;;;;;1.52;100.00;99927.78;6038880;28;20026;-72
2024/01/05 01:11:32;;;;;;;9.67;3.03;;;;;;;1.50;100.00;99927.03;6035202;28;20045;-71
2024/01/05 01:14:27;;;;;;;12.70;4.70;;;;;;;1.51;100.00;99924.31;6038586;28;20037;-71
2024/01/05 01:17:22;;;;;;;16.53;6.03;;;;;;;1.55;100.00;99935.41;6041897;28;20077;-71
2024/01/05 01:20:18;;;;;;;18.43;4.97;;;;;;;1.53;100.00;99926.81;6036481;28;20033;-71
2024/01/05 01:23:13;;;;;;;9.97;4.10;;;;;;;1.48;100.00;99928.91;6038065;28;20277;-71
2024/01/05 01:26:08;;;;;;;14.27;4.68;;;;;;;1.50;100.00;99938.31;6035230;28;20038;-71
2024/01/05 01:29:06;;;;;;;11.67;5.20;;;;;;;1.40;100.00;99933.84;6040280;28;20029;-71
2024/01/05 01:32:02;;;;;;;12.95;5.00;;;;;;;1.40;100.00;99926.00;6028391;28;20069;-71
2024/01/05 01:34:57;;;;;;;12.07;4.47;;;;;;;1.36;100.00;99920.16;6043945;28;20030;-71
2024/01/05 01:37:52;;;;;;;17.77;4.97;;;;;;;1.48;100.00;99928.91;6040102;28;20261;-72
2024/01/05 01:40:48;;;;;;;15.03;5.03;;;;;;;1.49;100.00;99921.00;6036851;28;20108;-71
2024/01/05 01:43:48;;;;;;;9.98;3.47;;;;;;;1.50;100.00;99912.19;6041162;28;20034;-71
2024/01/05 01:46:43;;;;;;;14.10;5.28;;;;;;;1.48;100.00;99900.19;6039094;28;20374;-71
2024/01/05 01:49:39;;;;;;;12.32;3.75;;;;;;;1.51;100.00;99913.03;6037048;28;20030;-71
2024/01/05 01:52:36;;;;;;;13.43;4.50;;;;;;;1.49;100.00;99904.47;6042460;28;20025;-71
2024/01/05 01:55:32;;;;;;;12.57;4.47;;;;;;;1.49;100.00;99894.03;6035491;28;20668;-72
2024/01/05 01:58:27;;;;;;;14.63;4.30;;;;;;;1.53;100.00;99895.47;6034979;28;20038;-71
2024/01/05 02:01:23;;;;;;;9.52;3.90;;;;;;;1.49;100.00;99887.03;6044967;28;20033;-72
2024/01/05 02:04:19;;;;;;;12.40;5.13;;;;;;;1.52;100.00;99894.63;6038986;28;20084;-72
2024/01/05 02:07:15;;;;;;;14.43;5.47;;;;;;;1.48;100.00;99889.75;6033803;28;20466;-72
2024/01/05 02:10:10;;;;;;;11.90;4.22;;;;;;;1.41;100.00;99880.69;6037588;28;20049;-71
2024/01/05 02:13:05;;;;;;;11.33;4.47;;;;;;;1.49;100.00;99892.25;6037370;28;20037;-72
2024/01/05 02:16:01;;;;;;;11.33;3.20;;;;;;;1.40;100.00;99872.00;6032056;28;20117;-72
2024/01/05 02:18:56;;;;;;;17.07;4.37;;;;;;;1.50;100.00;99874.78;6033766;28;20030;-72
2024/01/05 02:21:53;;;;;;;10.53;2.80;;;;;;;1.49;100.00;99865.31;6037051;28;20064;-71
2024/01/05 02:24:49;;;;;;;14.90;4.30;;;;;;;1.39;100.00;99843.38;6033620;28;20063;-72
2024/01/05 02:27:44;;;;;;;11.57;4.97;;;;;;;1.45;100.00;99850.78;6037626;28;20022;-72
2024/01/05 02:30:40;;;;;;;15.10;4.53;;;;;;;1.47;100.00;99848.91;6035663;28;20044;-72
2024/01/05 02:33:36;;;;;;;13.73;4.03;;;;;;;1.45;100.00;99838.56;6040139;28;20130;-71
2024/01/05 02:36:31;;;;;;;18.33;4.43;;;;;;;1.47;100.00;99841.88;6018634;28;20321;-72
2024/01/05 02:39:26;;;;;;;17.97;5.17;;;;;;;1.43;100.00;99830.00;6036769;28;20516;-71
2024/01/05 02:42:22;;;;;;;16.77;5.53;;;;;;;1.51;100.00;99837.28;6036841;28;20027;-72
2024/01/05 02:45:20;;;;;;;15.13;5.23;;;;;;;1.48;100.00;99825.28;6040300;28;20034;-73
2024/01/05 02:48:17;;;;;;;9.18;3.10;;;;;;;1.44;100.00;99812.56;6035268;28;20113;-71
2024/01/05 02:51:12;;;;;;;12.00;4.70;;;;;;;1.45;100.00;99803.75;6031828;28;20073;-71
2024/01/05 02:54:07;;;;;;;16.20;5.70;;;;;;;1.51;100.00;99819.00;6035317;28;20038;-71
2024/01/05 02:57:03;;;;;;;13.30;5.07;;;;;;;1.45;100.00;99796.78;6035326;28;20035;-71
2024/01/05 02:59:58;;;;;;;17.05;5.47;;;;;;;1.42;100.00;99783.09;6048455;28;20030;-70
2024/01/05 03:02:54;;;;;;;13.47;5.03;;;;;;;1.51;100.00;99793.72;6043074;28;20026;-69
2024/01/05 03:05:50;;;;;;;16.10;6.13;;;;;;;1.51;100.00;99787.66;6045106;28;20038;-70
2024/01/05 03:08:45;;;;;;;23.87;6.03;;;;;;;1.51;100.00;99783.28;6042672;28;20030;-70
2024/01/05 03:11:40;;;;;;;20.08;5.53;;;;;;;1.51;100.00;99782.44;6036413;28;20026;-71
2024/01/05 03:14:36;;;;;;;21.50;6.70;;;;;;;1.49;100.00;99779.09;6041437;28;20030;-70
2024/01/05 03:17:31;;;;;;;23.47;7.17;;;;;;;1.46;100.00;99771.50;6044067;28;20060;-70
2024/01/05 03:20:26;;;;;;;15.67;5.40;;;;;;;1.42;100.00;99760.44;6046989;28;20632;-71
2024/01/05 03:23:21;;;;;;;21.10;7.00;;;;;;;1.48;100.00;99766.97;6042322;28;20030;-71
2024/01/05 03:26:17;;;;;;;17.67;6.07;;;;;;;1.45;100.00;99767.19;6043606;28;20027;-71
2024/01/05 03:29:12;;;;;;;20.27;6.07;;;;;;;1.41;100.00;99750.09;6042599;28;20057;-71
2024/01/05 03:32:08;;;;;;;19.43;6.40;;;;;;;1.47;100.00;99758.31;6030193;28;20038;-71
2024/01/05 03:35:04;;;;;;;21.55;6.40;;;;;;;1.46;100.00;99754.03;6034488;28;20061;-71
2024/01/05 03:37:59;;;;;;;20.13;7.07;;;;;;;1.44;100.00;99734.22;6035143;28;20065;-69
2024/01/05 03:40:54;;;;;;;14.77;5.33;;;;;;;1.45;100.00;99747.16;6043165;28;20026;-71
2024/01/05 03:43:50;;;;;;;20.43;6.73;;;;;;;1.39;100.00;99734.53;6036025;28;20108;-71
2024/01/05 03:46:46;;;;;;;16.40;5.70;;;;;;;1.41;100.00;99739.66;6035634;28;20033;-71
2024/01/05 03:49:42;;;;;;;20.98;6.72;;;;;;;1.45;100.00;99749.75;6041363;28;20030;-71
2024/01/05 03:52:37;;;;;;;15.80;6.22;;;;;;;1.50;100.00;99758.09;6045472;28;20069;-71
2024/01/05 03:55:32;;;;;;;17.50;6.53;;;;;;;1.52;100.00;99763.22;6045127;28;20053;-71
2024/01/05 03:58:28;;;;;;;23.33;6.73;;;;;;;1.53;100.00;99746.56;6036758;28;20501;-71
2024/01/05 04:01:23;;;;;;;22.48;6.55;;;;;;;1.47;100.00;99723.53;6046367;28;20037;-72
2024/01/05 04:04:19;;;;;;;24.90;7.20;;;;;;;1.43;100.00;99707.25;6036445;28;20437;-72
2024/01/05 04:07:14;;;;;;;23.97;8.60;;;;;;;1.49;100.00;99711.19;6029482;28;20030;-71
2024/01/05 04:10:09;;;;;;;23.27;7.03;;;;;;;1.52;100.00;99711.78;6033551;28;20030;-71
2024/01/05 04:13:05;;;;;;;26.75;8.52;;;;;;;1.47;100.00;99695.63;6039770;28;20064;-71
2024/01/05 04:16:00;;;;;;;19.52;6.88;;;;;;;1.48;100.00;99699.06;6041220;28;20428;-72
2024/01/05 04:18:55;;;;;;;24.20;8.17;;;;;;;1.45;100.00;99688.84;6031279;28;20053;-72
2024/01/05 04:21:51;;;;;;;21.80;6.70;;;;;;;1.48;100.00;99699.06;6041804;28;20026;-72
2024/01/05 04:24:46;;;;;;;27.23;7.72;;;;;;;1.48;100.00;99694.69;6042081;28;20041;-72
2024/01/05 04:27:42;;;;;;;29.50;8.97;;;;;;;1.43;100.00;99675.06;6042524;28;20178;-72
2024/01/05 04:30:37;;;;;;;21.63;7.47;;;;;;;1.54;100.00;99693.41;6043000;28;20025;-71
2024/01/05 04:33:33;;;;;;;25.55;9.02;;;;;;;1.52;100.00;99675.22;6032214;28;20038;-71
2024/01/05 04:36:28;;;;;;;24.33;8.60;;;;;;;1.49;100.00;99683.31;6034491;28;20038;-72
2024/01/05 04:39:23;;;;;;;27.43;8.33;;;;;;;1.52;100.00;99685.66;6036567;28;20049;-72
2024/01/05 04:42:19;;;;;;;25.07;7.80;;;;;;;1.48;100.00;99673.78;6034937;28;20894;-71
2024/01/05 04:45:16;;;;;;;21.77;7.53;;;;;;;1.48;100.00;99670.34;6036704;28;20026;-71
2024/01/05 04:48:12;;;;;;;25.67;7.15;;;;;;;1.48;100.00;99678.19;6039782;28;20068;-71
2024/01/05 04:51:07;;;;;;;19.17;7.57;;;;;;;1.53;100.00;99678.66;6040065;28;20076;-70
2024/01/05 04:54:03;;;;;;;24.43;7.73;;;;;;;1.48;100.00;99683.41;6035149;28;20378;-71
2024/01/05 04:56:58;;;;;;;22.02;7.53;;;;;;;1.48;100.00;99673.78;6038291;28;20030;-72
2024/01/05 04:59:54;;;;;;;26.97;9.50;;;;;;;1.58;100.00;99673.91;6043474;28;20095;-71
2024/01/05 05:02:49;;;;;;;23.43;7.73;;;;;;;1.58;100.00;99663.47;6030105;28;20026;-71
2024/01/05 05:05:44;;;;;;;19.03;7.53;;;;;;;1.55;100.00;99656.69;6039413;28;20272;-70
2024/01/05 05:08:40;;;;;;;24.53;9.50;;;;;;;1.55;100.00;99653.28;6036333;28;20046;-70
2024/01/05 05:11:35;;;;;;;26.60;8.33;;;;;;;1.62;100.00;99657.91;6034028;28;20080;-71
2024/01/05 05:14:30;;;;;;;22.60;6.67;;;;;;;1.59;100.00;99654.69;6043014;28;20073;-70
2024/01/05 05:17:26;;;;;;;28.90;9.13;;;;;;;1.63;100.00;99662.19;6042884;28;20060;-71
2024/01/05 05:20:21;;;;;;;20.30;7.77;;;;;;;1.60;100.00;99646.72;6032836;28;20397;-71
2024/01/05 05:23:16;;;;;;;24.93;8.83;;;;;;;1.63;100.00;99650.91;6034359;28;20057;-72
2024/01/05 05:26:12;;;;;;;21.27;7.23;;;;;;;1.63;100.00;99651.72;6032817;28;20042;-70
2024/01/05 05:29:07;;;;;;;22.67;7.60;;;;;;;1.71;100.00;99659.00;6034350;28;20061;-72
2024/01/05 05:32:03;;;;;;;20.90;6.30;;;;;;;1.70;100.00;99657.34;6035451;28;20281;-71
2024/01/05 05:34:58;;;;;;;24.77;7.28;;;;;;;1.67;100.00;99647.13;6033413;28;20030;-73
2024/01/05 05:37:55;;;;;;;21.85;6.20;;;;;;;1.75;100.00;99655.19;6034287;28;20500;-71
2024/01/05 05:40:50;;;;;;;16.50;5.72;;;;;;;1.75;100.00;99658.66;6029397;28;20389;-72
2024/01/05 05:43:46;;;;;;;28.10;8.43;;;;;;;1.78;100.00;99660.19;6038815;28;20033;-72
2024/01/05 05:46:41;;;;;;;20.98;7.03;;;;;;;1.75;100.00;99652.59;6038159;28;20146;-71
2024/01/05 05:49:37;;;;;;;21.77;6.73;;;;;;;1.73;100.00;99638.81;6038751;28;20038;-72
2024/01/05 05:52:34;;;;;;;27.13;9.02;;;;;;;1.79;100.00;99644.38;6030857;28;20074;-72
2024/01/05 05:55:30;;;;;;;23.70;7.78;;;;;;;1.80;100.00;99653.06;6039487;28;20034;-72
2024/01/05 05:58:26;;;;;;;24.00;8.23;;;;;;;1.88;100.00;99650.69;6030266;28;20045;-72
2024/01/05 06:01:23;;;;;;;24.02;8.60;;;;;;;1.87;100.00;99645.59;6026588;28;20069;-71
2024/01/05 06:04:19;;;;;;;23.65;8.38;;;;;;;1.94;100.00;99658.06;6044950;28;20033;-72
2024/01/05 06:07:15;;;;;;;19.92;6.10;;;;;;;1.93;100.00;99648.56;6030435;28;20051;-71
2024/01/05 06:10:10;;;;;;;21.75;7.88;;;;;;;1.91;100.00;99645.25;6035762;28;20153;-72
2024/01/05 06:13:06;;;;;;;28.73;9.80;;;;;;;1.98;100.00;99649.06;6040416;28;20042;-72
2024/01/05 06:16:01;;;;;;;25.25;8.63;;;;;;;1.97;100.00;99636.09;6043958;28;20033;-72
2024/01/05 06:18:57;;;;;;;29.33;7.93;;;;;;;1.95;100.00;99628.38;6038645;28;20022;-72
2024/01/05 06:21:53;;;;;;;22.60;6.80;;;;;;;1.97;100.00;99631.72;6041371;28;20026;-72
2024/01/05 06:24:48;;;;;;;25.67;7.30;;;;;;;1.98;100.00;99633.38;6040366;28;20080;-72
2024/01/05 06:27:43;;;;;;;24.10;7.80;;;;;;;2.04;100.00;99635.50;6040477;28;20054;-72
2024/01/05 06:30:39;;;;;;;19.70;6.60;;;;;;;2.05;100.00;99639.78;6034640;28;20066;-72
2024/01/05 06:33:34;;;;;;;19.40;7.30;;;;;;;2.06;100.00;99643.25;6039723;28;20389;-71
2024/01/05 06:36:29;;;;;;;26.93;8.90;;;;;;;1.99;100.00;99632.41;6038856;28;20030;-72
2024/01/05 06:39:25;;;;;;;17.87;6.37;;;;;;;2.11;100.00;99647.16;6040611;28;20043;-71
2024/01/05 06:42:21;;;;;;;19.55;6.78;;;;;;;2.12;100.00;99651.41;6035753;28;20042;-71
2024/01/05 06:45:16;;;;;;;24.13;7.43;;;;;;;2.08;100.00;99639.56;6029307;28;20034;-72
2024/01/05 06:48:12;;;;;;;27.95;8.38;;;;;;;2.15;100.00;99645.97;6036109;28;20088;-72
2024/01/05 06:51:07;;;;;;;24.23;7.13;;;;;;;2.09;100.00;99643.00;6039709;28;20080;-72
2024/01/05 06:54:02;;;;;;;23.60;7.37;;;;;;;2.11;100.00;99641.94;6042246;28;20104;-72
2024/01/05 06:56:58;;;;;;;20.58;5.93;;;;;;;2.16;100.00;99644.19;6032729;28;20038;-72
2024/01/05 06:59:53;;;;;;;17.37;5.60;;;;;;;2.14;100.00;99620.78;6042168;28;20026;-72
2024/01/05 07:02:49;;;;;;;19.58;6.60;;;;;;;2.13;100.00;99613.03;6037039;28;20282;-73
2024/01/05 07:05:44;;;;;;;21.80;6.37;;;;;;;2.06;100.00;99602.25;6039489;28;20162;-72
2024/01/05 07:08:40;;;;;;;21.50;6.55;;;;;;;2.05;100.00;99611.03;6040106;28;20026;-73
2024/01/05 07:11:35;;;;;;;15.88;5.53;;;;;;;2.08;100.00;99621.25;6034288;28;20038;-72
2024/01/05 07:14:31;;;;;;;19.57;6.23;;;;;;;2.13;100.00;99624.34;6044039;28;20030;-72
2024/01/05 07:17:26;;;;;;;19.92;5.60;;;;;;;2.06;100.00;99611.88;6040356;28;20477;-73
2024/01/05 07:20:22;;;;;;;19.23;7.18;;;;;;;2.12;100.00;99620.03;6040428;28;20030;-72
2024/01/05 07:23:17;;;;;;;13.30;4.77;;;;;;;2.09;100.00;99601.19;6037101;28;20041;-72
2024/01/05 07:26:12;;;;;;;18.07;5.17;;;;;;;2.15;100.00;99603.28;6042306;28;20036;-72
2024/01/05 07:29:08;;;;;;;16.63;5.37;;;;;;;2.12;100.00;99609.59;6042209;28;20430;-72
2024/01/05 07:32:04;;;;;;;20.50;5.57;;;;;;;2.12;100.00;99603.56;6033922;28;20060;-71
2024/01/05 07:35:00;;;;;;;19.48;6.72;;;;;;;2.07;100.00;99589.97;6038943;28;20035;-72
2024/01/05 07:37:55;;;;;;;16.38;6.65;;;;;;;2.03;100.00;99589.41;6037113;28;20030;-72
2024/01/05 07:40:50;;;;;;;15.70;6.27;;;;;;;2.06;100.00;99583.13;6043987;28;20052;-72
2024/01/05 07:43:46;;;;;;;19.93;6.93;;;;;;;2.04;100.00;99583.22;6035286;28;20053;-72
2024/01/05 07:46:41;;;;;;;18.57;5.83;;;;;;;2.12;100.00;99593.91;6030475;28;20101;-72
2024/01/05 07:49:37;;;;;;;16.80;5.72;;;;;;;2.08;100.00;99584.66;6030626;28;20030;-72
2024/01/05 07:52:32;;;;;;;15.57;5.37;;;;;;;2.15;100.00;99590.22;6028466;28;20037;-71
2024/01/05 07:55:27;;;;;;;18.00;5.97;;;;;;;2.11;100.00;99578.34;6031078;28;20038;-72
2024/01/05 07:58:23;;;;;;;18.90;6.82;;;;;;;2.15;100.00;99575.38;6027117;28;20101;-72
2024/01/05 08:01:19;;;;;;;21.67;7.43;;;;;;;2.17;100.00;99580.50;6037124;28;20042;-72
2024/01/05 08:04:14;;;;;;;20.95;7.30;;;;;;;2.19;100.00;99582.03;6035652;28;20076;-72
2024/01/05 08:07:09;;;;;;;19.02;7.47;;;;;;;2.19;100.00;99579.41;6031847;28;20058;-72
2024/01/05 08:10:05;;;;;;;17.63;5.87;;;;;;;2.20;100.00;99570.59;6033694;28;20092;-72
2024/01/05 08:13:01;;;;;;;12.75;4.80;;;;;;;2.20;100.00;99573.22;6038472;28;20275;-72
2024/01/05 08:15:56;;;;;;;13.02;5.47;;;;;;;2.20;100.00;99567.97;6037699;28;20029;-72
2024/01/05 08:18:52;;;;;;;17.03;5.40;;;;;;;2.16;100.00;99566.56;6037295;28;20022;-72
2024/01/05 08:21:47;;;;;;;13.57;5.53;;;;;;;2.25;100.00;99572.88;6032384;28;20054;-72
2024/01/05 08:24:42;;;;;;;13.10;5.43;;;;;;;2.20;100.00;99562.75;6033838;28;20038;-72
2024/01/05 08:27:37;;;;;;;19.30;6.10;;;;;;;2.26;100.00;99569.28;6027479;28;20100;-72
2024/01/05 08:30:33;;;;;;;12.73;4.43;;;;;;;2.26;100.00;99572.72;6045399;28;20052;-73
2024/01/05 08:33:28;;;;;;;13.30;4.73;;;;;;;2.27;100.00;99563.09;6039135;28;20393;-72
2024/01/05 08:36:23;;;;;;;16.33;4.60;;;;;;;2.28;100.00;99557.75;6038099;28;20033;-72
2024/01/05 08:39:19;;;;;;;13.60;5.67;;;;;;;2.31;100.00;99562.72;6031984;28;20034;-72
2024/01/05 08:42:14;;;;;;;13.83;4.87;;;;;;;2.26;100.00;99557.03;6029115;28;20456;-72
2024/01/05 08:45:09;;;;;;;9.70;3.13;;;;;;;2.25;100.00;99547.56;6040990;28;20057;-71
2024/01/05 08:48:05;;;;;;;15.97;5.00;;;;;;;2.27;100.00;99552.66;6031322;28;20145;-72
2024/01/05 08:51:00;;;;;;;10.20;4.30;;;;;;;2.29;100.00;99548.94;6026082;28;20030;-72
2024/01/05 08:53:58;;;;;;;15.37;4.50;;;;;;;2.33;100.00;99571.31;6030121;28;20133;-71
2024/01/05 08:56:53;;;;;;;16.15;5.45;;;;;;;2.35;100.00;99574.63;6037748;28;20301;-71
2024/01/05 08:59:48;;;;;;;18.50;7.50;;;;;;;2.30;100.00;99579.41;6038081;28;20037;-71
2024/01/05 09:02:44;;;;;;;18.13;5.53;;;;;;;2.31;100.00;99588.88;6039771;28;20072;-72
2024/01/05 09:05:39;;;;;;;16.70;5.75;;;;;;;2.38;100.00;99591.84;6035260;28;20053;-71
2024/01/05 09:08:35;;;;;;;10.70;4.47;;;;;;;2.35;100.00;99584.25;6038652;28;20490;-73
2024/01/05 09:11:30;;;;;;;10.88;5.03;;;;;;;2.34;100.00;99575.56;6032655;28;20040;-72
2024/01/05 09:14:25;;;;;;;16.87;6.17;;;;;;;2.42;100.00;99588.88;6033975;28;20030;-72
2024/01/05 09:17:21;;;;;;;14.83;5.43;;;;;;;2.44;100.00;99591.38;6027138;28;20041;-72
2024/01/05 09:20:16;;;;;;;18.00;6.67;;;;;;;2.42;100.00;99601.94;6035103;28;20102;-72
2024/01/05 09:23:13;;;;;;;15.00;5.93;;;;;;;2.49;100.00;99604.09;6033311;28;20493;-71
2024/01/05 09:26:14;;;;;;;15.23;5.70;;;;;;;2.46;100.00;99599.94;6032440;28;20390;-72
2024/01/05 09:29:10;;;;;;;14.20;5.45;;;;;;;2.61;100.00;99603.13;6032063;28;20041;-72
2024/01/05 09:32:05;;;;;;;13.37;4.93;;;;;;;2.54;100.00;99597.53;6044155;28;20092;-72
2024/01/05 09:35:00;;;;;;;16.25;5.05;;;;;;;2.60;100.00;99598.81;6034238;28;20034;-72
2024/01/05 09:37:56;;;;;;;13.07;5.67;;;;;;;2.65;100.00;99604.50;6032757;28;20481;-71
2024/01/05 09:40:54;;;;;;;13.40;5.28;;;;;;;2.62;100.00;99599.53;6043402;28;20022;-72
2024/01/05 09:43:50;;;;;;;11.52;4.38;;;;;;;2.68;100.00;99599.88;6032844;28;20038;-71
2024/01/05 09:46:45;;;;;;;18.30;7.40;;;;;;;2.66;100.00;99595.72;6036252;28;20489;-71
2024/01/05 09:49:44;;;;;;;30.80;12.23;;;;;;;2.74;100.00;99603.78;6028869;28;20320;-71
2024/01/05 09:52:40;;;;;;;15.82;5.72;;;;;;;2.76;100.00;99597.47;6034762;28;20095;-72
2024/01/05 09:55:36;;;;;;;18.55;8.93;;;;;;;2.71;100.00;99588.31;6036412;28;20038;-71
2024/01/05 09:58:31;;;;;;;13.00;6.03;;;;;;;2.80;100.00;99592.81;6043876;28;20048;-72
2024/01/05 10:01:28;;;;;;;15.53;4.90;;;;;;;2.89;100.00;99586.81;6033828;28;20463;-72
2024/01/05 10:04:23;;;;;;;21.20;5.65;;;;;;;2.92;100.00;99582.16;6036436;28;20015;-72
2024/01/05 10:07:19;;;;;;;13.27;4.80;;;;;;;2.91;100.00;99584.91;6041164;28;20416;-71
2024/01/05 10:10:14;;;;;;;13.60;5.30;;;;;;;2.87;100.00;99581.72;6036000;28;20494;-72
2024/01/05 10:13:09;;;;;;;14.47;6.97;;;;;;;2.86;100.00;99576.59;6023946;28;20034;-71
2024/01/05 10:16:05;;;;;;;14.63;4.73;;;;;;;2.82;100.00;99569.97;6033176;28;20036;-71
2024/01/05 10:19:17;;;;;;;12.70;5.32;;;;;;;2.78;100.00;99569.38;6034101;28;20034;-72
2024/01/05 10:22:13;;;;;;;14.23;5.70;;;;;;;2.84;100.00;99581.13;6027441;28;20627;-71
2024/01/05 10:25:21;;;;;;;12.18;4.95;;;;;;;2.89;100.00;99576.34;6038897;28;20037;-72
2024/01/05 10:28:33;;;;;;;10.60;4.18;;;;;;;2.93;100.00;99580.38;6037760;28;20041;-71
2024/01/05 10:31:28;;;;;;;16.58;6.05;;;;;;;2.91;100.00;99579.66;6036754;28;20073;-71
2024/01/05 10:34:33;;;;;;;13.23;5.20;;;;;;;2.91;100.00;99575.25;6038517;28;20038;-72
2024/01/05 10:37:28;;;;;;;14.10;5.15;;;;;;;2.90;100.00;99583.25;6032737;28;20125;-71
2024/01/05 10:40:23;;;;;;;14.53;5.27;;;;;;;2.94;100.00;99576.78;6032419;28;20034;-72
2024/01/05 10:43:19;;;;;;;14.13;5.27;;;;;;;2.95;100.00;99554.91;6039277;28;20029;-71
2024/01/05 10:46:17;;;;;;;14.18;5.57;;;;;;;3.05;100.00;99554.97;6035492;28;20050;-72
2024/01/05 10:49:12;;;;;;;12.65;5.20;;;;;;;3.02;100.00;99542.16;6030060;28;20030;-71
2024/01/05 10:52:08;;;;;;;16.30;6.35;;;;;;;2.97;100.00;99524.19;6038309;28;20037;-72
2024/01/05 10:55:05;;;;;;;12.25;4.97;;;;;;;3.05;100.00;99519.13;6035425;28;20029;-71
2024/01/05 10:58:00;;;;;;;15.88;5.85;;;;;;;3.20;100.00;99527.50;6040919;28;20056;-72
2024/01/05 11:00:59;;;;;;;15.50;5.97;;;;;;;3.25;100.00;99520.94;6034800;28;20027;-72
2024/01/05 11:03:55;;;;;;;18.05;6.38;;;;;;;3.19;100.00;99524.06;6034830;28;20617;-72
2024/01/05 11:06:51;;;;;;;19.58;5.90;;;;;;;3.25;100.00;99520.94;6032273;28;20035;-72
2024/01/05 11:10:31;;;;;;;15.65;5.35;;;;;;;3.30;100.00;99524.00;6037347;28;20073;-71
2024/01/05 11:13:49;;;;;;;15.80;5.85;;;;;;;3.34;100.00;99540.28;6029542;28;20464;-71
2024/01/05 11:16:58;;;;;;;18.88;7.18;;;;;;;3.30;100.00;99518.75;6012242;28;20030;-72
2024/01/05 11:20:08;;;;;;;18.70;6.38;;;;;;;3.27;100.00;99500.66;6039778;28;20470;-71
2024/01/05 11:23:04;;;;;;;22.50;8.32;;;;;;;3.38;100.00;99510.25;6031405;28;20034;-71
2024/01/05 11:26:00;;;;;;;20.33;7.70;;;;;;;3.38;100.00;99502.38;6051722;28;20034;-71
2024/01/05 11:28:55;;;;;;;19.47;7.43;;;;;;;3.32;100.00;99495.03;6047734;28;20026;-72
2024/01/05 11:31:52;;;;;;;20.40;8.40;;;;;;;3.33;100.00;99502.78;6035521;28;20089;-71
2024/01/05 11:34:49;;;;;;;20.25;7.45;;;;;;;3.41;100.00;99497.72;6038017;28;20039;-71
2024/01/05 11:37:44;;;;;;;19.65;7.43;;;;;;;3.40;100.00;99479.50;6040935;28;20038;-72
2024/01/05 11:40:39;;;;;;;19.48;7.95;;;;;;;3.54;100.00;99484.38;6040395;28;20049;-71
2024/01/05 11:43:37;;;;;;;24.80;7.60;;;;;;;3.46;100.00;99471.09;6040920;28;20385;-71
2024/01/05 11:46:54;;;;;;;18.52;7.40;;;;;;;3.66;100.00;99488.59;6040605;28;20034;-72
2024/01/05 11:49:51;;;;;;;19.83;7.93;;;;;;;3.67;100.00;99495.47;6024225;28;20117;-71
2024/01/05 11:52:47;;;;;;;20.45;7.55;;;;;;;3.67;100.00;99494.66;6033063;28;20038;-71
2024/01/05 11:55:50;;;;;;;23.05;7.88;;;;;;;3.72;100.00;99471.50;6027751;28;20026;-71
2024/01/05 11:58:46;;;;;;;19.85;8.25;;;;;;;3.85;100.00;99461.59;6029722;28;20038;-71
2024/01/05 12:01:41;;;;;;;21.70;7.22;;;;;;;3.87;100.00;99459.66;6027273;28;20037;-71
2024/01/05 12:04:50;;;;;;;22.83;7.80;;;;;;;3.76;100.00;99451.91;6034564;28;20057;-71
2024/01/05 12:07:45;;;;;;;24.15;7.68;;;;;;;3.82;100.00;99464.47;6037678;28;20037;-71
2024/01/05 12:10:40;;;;;;;25.20;7.53;;;;;;;3.90;100.00;99467.25;6032283;28;20030;-71
2024/01/05 12:13:37;;;;;;;18.88;7.45;;;;;;;3.86;100.00;99468.50;6040952;28;20417;-71
2024/01/05 12:16:32;;;;;;;21.40;7.13;;;;;;;3.87;100.00;99451.78;6040159;28;20097;-71
2024/01/05 12:19:27;;;;;;;19.33;6.97;;;;;;;3.97;100.00;99447.38;6029951;28;20026;-71
2024/01/05 12:22:23;;;;;;;21.43;7.63;;;;;;;3.93;100.00;99448.63;6040201;28;20026;-71
2024/01/05 12:25:18;;;;;;;24.50;9.23;;;;;;;3.98;100.00;99446.44;6039895;28;20026;-71
2024/01/05 12:28:14;;;;;;;22.93;7.67;;;;;;;4.04;100.00;99432.78;6044144;28;20268;-71
2024/01/05 12:31:12;;;;;;;23.25;7.70;;;;;;;4.02;100.00;99445.22;6038422;28;20075;-71
2024/01/05 12:34:07;;;;;;;21.38;9.20;;;;;;;4.10;100.00;99446.16;6058795;28;20034;-71
2024/01/05 12:37:07;;;;;;;20.43;6.43;;;;;;;4.08;100.00;99434.16;6041920;28;20038;-71
2024/01/05 12:40:10;;;;;;;18.55;6.80;;;;;;;4.14;100.00;99446.72;6042631;28;20465;-71
2024/01/05 12:43:10;;;;;;;20.48;7.28;;;;;;;4.08;100.00;99442.84;6039938;28;20034;-71
2024/01/05 12:46:06;;;;;;;35.75;12.85;;;;;;;4.10;100.00;99447.97;6027508;28;20034;-71
2024/01/05 12:49:20;;;;;;;36.28;12.60;;;;;;;4.11;100.00;99453.06;6027501;28;20510;-71
2024/01/05 12:52:15;;;;;;;27.98;9.15;;;;;;;4.13;100.00;99458.22;6039804;28;20034;-71
2024/01/05 12:55:28;;;;;;;18.17;7.67;;;;;;;4.16;100.00;99456.13;6037363;28;20042;-71
2024/01/05 12:58:24;;;;;;;20.73;7.88;;;;;;;4.19;100.00;99441.91;6033969;28;20018;-71
2024/01/05 13:01:20;;;;;;;18.33;7.15;;;;;;;4.20;100.00;99456.69;6045733;28;20030;-71
2024/01/05 13:04:27;;;;;;;25.38;8.50;;;;;;;4.20;100.00;99459.31;6038888;28;20108;-71
2024/01/05 13:07:22;;;;;;;19.33;9.48;;;;;;;4.17;100.00;99468.28;6042989;28;20489;-71
2024/01/05 13:10:18;;;;;;;20.97;8.43;;;;;;;4.20;100.00;99467.19;6031301;28;20053;-71
2024/01/05 13:13:13;;;;;;;21.60;7.38;;;;;;;4.30;100.00;99473.25;6030287;28;20105;-71
2024/01/05 13:16:09;;;;;;;19.97;8.00;;;;;;;4.27;100.00;99455.16;6031386;28;20482;-71
2024/01/05 13:19:07;;;;;;;16.27;6.63;;;;;;;4.32;100.00;99450.31;6042404;28;20038;-71
2024/01/05 13:22:09;;;;;;;21.95;8.10;;;;;;;4.38;100.00;99462.91;6028199;28;20041;-71
2024/01/05 13:25:04;;;;;;;20.23;7.95;;;;;;;4.32;100.00;99471.31;6037339;28;20057;-72
2024/01/05 13:28:00;;;;;;;20.73;8.45;;;;;;;4.32;100.00;99463.44;6040136;28;20026;-71
2024/01/05 13:30:57;;;;;;;22.80;9.32;;;;;;;4.30;100.00;99468.00;6033379;28;20117;-71
2024/01/05 13:33:53;;;;;;;18.90;7.93;;;;;;;4.37;100.00;99461.25;6029571;28;20024;-71
2024/01/05 13:36:48;;;;;;;22.57;8.33;;;;;;;4.33;100.00;99470.34;6031238;28;20042;-72
2024/01/05 13:39:43;;;;;;;26.53;10.30;;;;;;;4.29;100.00;99466.38;6041509;28;20030;-71
2024/01/05 13:42:39;;;;;;;20.17;7.27;;;;;;;4.30;100.00;99470.63;6038402;28;20433;-71